Time;durP1;ratioP1;P1;durP2;ratioP2;P2;SDS_P1;SDS_P2;PMS_P1;PMS_P2;Temp;Humidity;BMP_temperature;BMP_pressure;BME280_temperature;BME280_humidity;BME280_pressure;Samples;Min_cycle;Max_cycle;Signal;HPM_P1;HPM_P2
2022/11/13 00:01:43;;;;;;;51.85;32.58;;;;;;;6.07;100.00;102899.00;7385630;19;20011;-82
2022/11/13 00:04:12;;;;;;;49.30;30.10;;;;;;;6.07;100.00;102896.41;7394404;19;20058;-82
2022/11/13 00:06:44;;;;;;;49.78;31.08;;;;;;;6.08;100.00;102894.72;7392372;19;20011;-82
2022/11/13 00:09:14;;;;;;;49.95;30.30;;;;;;;6.07;100.00;102888.59;7388632;19;20340;-81
2022/11/13 00:11:44;;;;;;;50.97;31.48;;;;;;;6.03;100.00;102883.09;7388515;19;20006;-82
2022/11/13 00:14:13;;;;;;;52.08;30.95;;;;;;;5.99;100.00;102884.59;7387902;19;20042;-82
2022/11/13 00:16:43;;;;;;;50.15;29.35;;;;;;;5.95;100.00;102887.81;7390303;19;20023;-83
2022/11/13 00:19:12;;;;;;;44.10;28.63;;;;;;;5.94;100.00;102879.91;7390236;19;20054;-81
2022/11/13 00:21:45;;;;;;;46.25;29.90;;;;;;;6.01;100.00;102882.09;7386571;19;20022;-82
2022/11/13 00:24:14;;;;;;;46.17;28.73;;;;;;;6.03;100.00;102876.19;7384489;19;20050;-82
2022/11/13 00:26:44;;;;;;;51.38;31.15;;;;;;;6.05;100.00;102877.19;7385334;19;20035;-80
2022/11/13 00:29:14;;;;;;;49.08;29.50;;;;;;;6.02;100.00;102858.75;7384548;19;20356;-82
2022/11/13 00:31:44;;;;;;;40.60;26.52;;;;;;;5.99;100.00;102870.69;7380249;19;20010;-81
2022/11/13 00:34:13;;;;;;;46.30;28.35;;;;;;;5.98;100.00;102859.34;7384536;19;20035;-82
2022/11/13 00:37:06;;;;;;;44.95;28.15;;;;;;;5.91;100.00;102857.16;7383004;19;20342;-82
2022/11/13 00:40:00;;;;;;;40.47;25.85;;;;;;;5.84;100.00;102847.13;7387965;19;20033;-73
2022/11/13 00:42:29;;;;;;;47.88;28.40;;;;;;;5.82;100.00;102844.41;7385485;19;20014;-82
2022/11/13 00:44:59;;;;;;;44.63;28.08;;;;;;;5.78;100.00;102842.41;7385407;19;20395;-82
2022/11/13 00:47:28;;;;;;;40.95;26.52;;;;;;;5.75;100.00;102841.31;7383213;19;20371;-82
2022/11/13 00:49:58;;;;;;;42.67;25.40;;;;;;;5.75;100.00;102836.09;7380979;19;20006;-82
2022/11/13 00:52:30;;;;;;;40.78;25.42;;;;;;;5.73;100.00;102838.63;7382351;19;20014;-83
2022/11/13 00:55:00;;;;;;;45.17;27.02;;;;;;;5.79;100.00;102833.81;7382694;19;20025;-83
2022/11/13 00:57:29;;;;;;;43.25;27.05;;;;;;;5.77;100.00;102830.19;7384088;19;20022;-82
2022/11/13 00:59:59;;;;;;;37.85;25.30;;;;;;;5.77;100.00;102832.81;7382772;19;20104;-82
2022/11/13 01:02:28;;;;;;;39.83;26.33;;;;;;;5.79;100.00;102822.50;7385472;19;20019;-81
2022/11/13 01:04:58;;;;;;;41.38;25.67;;;;;;;5.80;100.00;102826.91;7383263;19;20017;-82
2022/11/13 01:07:30;;;;;;;34.90;23.83;;;;;;;5.79;100.00;102822.50;7383365;19;20029;-81
2022/11/13 01:10:00;;;;;;;38.72;23.25;;;;;;;5.78;100.00;102823.28;7383131;19;20015;-82
2022/11/13 01:12:30;;;;;;;41.25;24.17;;;;;;;5.76;100.00;102828.41;7383479;19;20017;-81
2022/11/13 01:15:01;;;;;;;36.63;22.98;;;;;;;5.69;100.00;102821.00;7382095;19;20006;-82
2022/11/13 01:17:31;;;;;;;35.13;22.23;;;;;;;5.65;100.00;102820.69;7381367;19;20022;-82
2022/11/13 01:20:00;;;;;;;37.42;24.50;;;;;;;5.61;100.00;102817.00;7383362;19;20019;-81
2022/11/13 01:22:32;;;;;;;40.65;23.65;;;;;;;5.57;100.00;102815.00;7382393;19;20011;-82
2022/11/13 01:25:02;;;;;;;35.58;21.80;;;;;;;5.52;100.00;102819.91;7381285;19;20489;-82
2022/11/13 01:27:34;;;;;;;34.35;22.30;;;;;;;5.50;100.00;102811.09;7381658;19;20006;-82
2022/11/13 01:30:03;;;;;;;39.90;22.40;;;;;;;5.46;100.00;102816.91;7383528;19;20021;-82
2022/11/13 01:32:33;;;;;;;37.92;22.98;;;;;;;5.43;100.00;102811.50;7384004;19;20457;-81
2022/11/13 01:35:03;;;;;;;37.88;21.70;;;;;;;5.39;100.00;102817.28;7385682;19;20021;-82
2022/11/13 01:37:35;;;;;;;39.38;24.48;;;;;;;5.37;100.00;102811.09;7383323;19;20018;-81
2022/11/13 01:40:06;;;;;;;36.95;22.63;;;;;;;5.34;100.00;102816.09;7380816;19;20014;-81
2022/11/13 01:42:36;;;;;;;33.53;20.80;;;;;;;5.29;100.00;102807.09;7383069;19;20371;-83
2022/11/13 01:45:42;;;;;;;33.40;21.45;;;;;;;5.28;100.00;102813.09;7382572;19;20014;-83
2022/11/13 01:48:13;;;;;;;35.05;21.50;;;;;;;5.29;100.00;102817.50;7380441;19;20332;-82
2022/11/13 01:50:43;;;;;;;42.38;23.60;;;;;;;5.33;100.00;102818.59;7382732;19;20025;-82
2022/11/13 01:53:15;;;;;;;37.53;22.58;;;;;;;5.29;100.00;102816.59;7379575;19;20015;-83
2022/11/13 01:55:45;;;;;;;35.67;23.90;;;;;;;5.29;100.00;102814.88;7380656;19;20015;-82
2022/11/13 01:58:16;;;;;;;36.47;22.00;;;;;;;5.28;100.00;102812.19;7380990;19;20015;-81
2022/11/13 02:24:03;;;;;;;37.15;20.55;;;;;;;4.95;100.00;102787.47;7369331;19;20757;-72
2022/11/13 02:45:55;;;;;;;;;;;;;;;;;;;;;
2022/11/13 02:50:01;;;;;;;27.00;16.42;;;;;;;4.61;100.00;102764.41;7367858;19;20056;-73
2022/11/13 03:07:43;;;;;;;31.13;19.20;;;;;;;4.73;100.00;102757.44;7371586;19;20420;-81
2022/11/13 03:10:13;;;;;;;34.85;20.17;;;;;;;4.77;100.00;102748.16;7377058;19;20018;-81
2022/11/13 03:12:43;;;;;;;31.35;20.27;;;;;;;4.82;100.00;102755.44;7374264;19;20015;-80
2022/11/13 03:15:12;;;;;;;34.72;20.45;;;;;;;4.84;100.00;102747.75;7375149;19;20014;-81
2022/11/13 03:17:42;;;;;;;34.05;20.73;;;;;;;4.85;100.00;102736.56;7377301;19;20018;-80
2022/11/13 03:20:12;;;;;;;30.35;18.83;;;;;;;4.86;100.00;102731.47;7370942;19;20275;-81
2022/11/13 03:22:44;;;;;;;31.17;18.58;;;;;;;4.90;100.00;102730.88;7378541;19;20015;-83
2022/11/13 03:25:13;;;;;;;32.13;18.48;;;;;;;4.90;100.00;102728.25;7375948;19;20325;-80
2022/11/13 03:27:43;;;;;;;28.98;17.73;;;;;;;4.89;100.00;102729.06;7375623;19;20007;-81
2022/11/13 03:30:14;;;;;;;29.63;17.88;;;;;;;4.86;100.00;102736.66;7376196;19;20419;-81
2022/11/13 03:32:43;;;;;;;31.92;18.50;;;;;;;4.87;100.00;102734.97;7374196;19;20030;-81
2022/11/13 03:35:13;;;;;;;29.65;17.85;;;;;;;4.85;100.00;102741.75;7376635;19;20010;-80
2022/11/13 03:37:45;;;;;;;31.83;18.25;;;;;;;4.87;100.00;102737.56;7386787;19;20007;-80
2022/11/13 03:40:15;;;;;;;24.10;16.50;;;;;;;4.89;100.00;102736.88;7381997;19;20055;-81
2022/11/13 03:42:44;;;;;;;30.15;18.15;;;;;;;4.89;100.00;102729.06;7385134;19;20094;-80
2022/11/13 03:45:14;;;;;;;29.38;18.50;;;;;;;4.91;100.00;102730.06;7386086;19;20007;-79
2022/11/13 03:47:43;;;;;;;31.17;17.52;;;;;;;4.90;100.00;102732.56;7382361;19;20311;-80
2022/11/13 03:50:13;;;;;;;26.63;16.48;;;;;;;4.92;100.00;102726.66;7383954;19;20018;-79
2022/11/13 03:52:45;;;;;;;31.13;16.42;;;;;;;4.93;100.00;102724.97;7379581;19;20015;-80
2022/11/13 03:55:15;;;;;;;28.55;15.43;;;;;;;4.93;100.00;102731.06;7384105;19;20027;-81
2022/11/13 03:57:44;;;;;;;29.27;17.60;;;;;;;4.92;100.00;102728.38;7388610;19;20006;-80
2022/11/13 04:00:16;;;;;;;28.17;15.68;;;;;;;4.89;100.00;102731.66;7386831;19;20007;-81
2022/11/13 04:02:45;;;;;;;26.88;16.80;;;;;;;4.86;100.00;102731.47;7386392;19;20015;-82
2022/11/13 04:05:15;;;;;;;27.70;16.45;;;;;;;4.83;100.00;102731.25;7383238;19;20767;-83
2022/11/13 04:07:53;;;;;;;26.27;15.63;;;;;;;4.81;100.00;102722.47;7384195;19;20011;-80
2022/11/13 04:10:23;;;;;;;23.08;15.07;;;;;;;4.83;100.00;102717.34;7385617;19;20003;-81
2022/11/13 04:12:53;;;;;;;26.63;15.32;;;;;;;4.82;100.00;102713.84;7383826;19;20117;-80
2022/11/13 04:15:23;;;;;;;28.08;16.02;;;;;;;4.83;100.00;102715.66;7386702;19;20487;-80
2022/11/13 04:17:52;;;;;;;24.25;15.55;;;;;;;4.82;100.00;102718.16;7385625;19;20243;-79
2022/11/13 04:20:22;;;;;;;28.27;15.95;;;;;;;4.79;100.00;102710.16;7382330;19;20565;-81
2022/11/13 04:22:54;;;;;;;25.73;14.50;;;;;;;4.73;100.00;102713.25;7380888;19;20037;-80
2022/11/13 04:25:24;;;;;;;25.80;13.95;;;;;;;4.69;100.00;102723.34;7380158;19;20151;-80
2022/11/13 04:27:54;;;;;;;24.52;14.35;;;;;;;4.63;100.00;102716.03;7379023;19;20557;-79
2022/11/13 04:30:24;;;;;;;28.45;14.85;;;;;;;4.58;100.00;102707.94;7382745;19;20014;-81
2022/11/13 04:32:54;;;;;;;24.25;15.50;;;;;;;4.54;100.00;102710.22;7379457;19;20023;-81
2022/11/13 04:35:23;;;;;;;22.15;13.50;;;;;;;4.49;100.00;102717.69;7382802;19;20014;-80
2022/11/13 04:37:55;;;;;;;23.70;14.18;;;;;;;4.49;100.00;102711.59;7383583;19;20010;-81
2022/11/13 04:40:25;;;;;;;23.52;14.07;;;;;;;4.49;100.00;102706.41;7379870;19;20022;-81
2022/11/13 04:42:52;;;;;;;20.60;13.20;;;;;;;4.46;100.00;102701.91;7382178;19;20071;-82
2022/11/13 04:45:26;;;;;;;23.25;13.88;;;;;;;4.44;100.00;102700.91;7379886;19;20360;-82
2022/11/13 04:47:55;;;;;;;24.40;14.32;;;;;;;4.46;100.00;102701.00;7380629;19;20010;-81
2022/11/13 04:50:25;;;;;;;20.25;13.43;;;;;;;4.44;100.00;102702.59;7380955;19;20043;-81
2022/11/13 04:52:57;;;;;;;22.90;14.05;;;;;;;4.43;100.00;102700.78;7378409;19;20025;-81
2022/11/13 04:55:29;;;;;;;23.17;14.35;;;;;;;4.45;100.00;102715.69;7382949;19;20047;-82
2022/11/13 04:57:58;;;;;;;24.48;13.38;;;;;;;4.46;100.00;102706.19;7379344;19;20010;-81
2022/11/13 05:00:28;;;;;;;25.80;14.45;;;;;;;4.47;100.00;102708.00;7380506;19;20011;-81
2022/11/13 05:02:58;;;;;;;20.75;13.70;;;;;;;4.47;100.00;102700.19;7378403;19;20238;-81
2022/11/13 05:05:28;;;;;;;20.08;12.55;;;;;;;4.45;100.00;102704.41;7375658;19;20490;-82
2022/11/13 05:08:00;;;;;;;25.65;14.63;;;;;;;4.45;100.00;102691.41;7378732;19;20055;-81
2022/11/13 05:10:30;;;;;;;23.75;13.77;;;;;;;4.43;100.00;102698.19;7382861;19;20007;-80
2022/11/13 05:12:59;;;;;;;26.08;14.30;;;;;;;4.40;100.00;102693.69;7377775;19;20014;-81
2022/11/13 05:15:29;;;;;;;19.50;13.88;;;;;;;4.39;100.00;102689.28;7378462;19;20039;-80
2022/11/13 05:17:59;;;;;;;27.38;15.00;;;;;;;4.39;100.00;102688.41;7379571;19;20213;-82
2022/11/13 05:20:28;;;;;;;22.98;13.73;;;;;;;4.36;100.00;102686.50;7378731;19;20007;-81
2022/11/13 05:23:00;;;;;;;23.08;13.98;;;;;;;4.36;100.00;102683.91;7380065;19;20014;-81
2022/11/13 05:25:31;;;;;;;23.50;14.13;;;;;;;4.36;100.00;102685.59;7382045;19;20087;-81
2022/11/13 05:28:01;;;;;;;25.58;14.95;;;;;;;4.39;100.00;102683.19;7379307;19;20451;-81
2022/11/13 05:30:30;;;;;;;22.38;14.23;;;;;;;4.37;100.00;102677.00;7380514;19;20010;-81
2022/11/13 05:33:00;;;;;;;24.13;14.07;;;;;;;4.37;100.00;102674.41;7379590;19;20014;-81
2022/11/13 05:35:29;;;;;;;22.48;13.10;;;;;;;4.34;100.00;102664.72;7383668;19;20011;-81
2022/11/13 05:38:04;;;;;;;24.25;12.75;;;;;;;4.30;100.00;102659.19;7384472;19;20433;-81
2022/11/13 05:40:34;;;;;;;21.98;13.10;;;;;;;4.25;100.00;102661.47;7382677;19;20482;-82
2022/11/13 05:43:03;;;;;;;24.42;14.85;;;;;;;4.17;100.00;102662.66;7378630;19;20026;-82
2022/11/13 05:45:33;;;;;;;21.63;12.80;;;;;;;4.10;100.00;102653.59;7379661;19;20014;-81
2022/11/13 05:48:02;;;;;;;27.23;15.48;;;;;;;4.05;100.00;102649.78;7377923;19;20014;-81
2022/11/13 05:50:32;;;;;;;25.17;14.35;;;;;;;4.00;100.00;102648.56;7379596;19;20017;-81
2022/11/13 05:53:04;;;;;;;28.63;15.35;;;;;;;3.94;100.00;102642.94;7373763;19;20027;-81
2022/11/13 05:55:34;;;;;;;21.65;13.82;;;;;;;3.90;100.00;102640.94;7383167;19;20014;-81
2022/11/13 05:58:04;;;;;;;22.23;13.70;;;;;;;3.88;100.00;102646.03;7378759;19;20024;-81
2022/11/13 06:00:34;;;;;;;21.80;13.07;;;;;;;3.83;100.00;102649.09;7375795;19;20021;-81
2022/11/13 06:03:04;;;;;;;23.45;13.23;;;;;;;3.80;100.00;102646.28;7377278;19;20018;-80
2022/11/13 06:05:36;;;;;;;25.38;14.02;;;;;;;3.80;100.00;102656.66;7378319;19;20326;-81
2022/11/13 06:08:09;;;;;;;21.70;13.50;;;;;;;3.78;100.00;102642.69;7377503;19;20029;-81
2022/11/13 06:10:39;;;;;;;25.90;15.48;;;;;;;3.71;100.00;102640.47;7378574;19;20010;-81
2022/11/13 06:13:09;;;;;;;24.40;14.48;;;;;;;3.70;100.00;102631.78;7375668;19;20011;-80
2022/11/13 06:15:39;;;;;;;25.08;14.02;;;;;;;3.73;100.00;102636.28;7378067;19;20014;-80
2022/11/13 06:18:09;;;;;;;19.35;12.38;;;;;;;3.71;100.00;102633.56;7378904;19;20021;-80
2022/11/13 06:20:39;;;;;;;23.65;13.45;;;;;;;3.69;100.00;102629.06;7378497;19;20019;-79
2022/11/13 06:23:12;;;;;;;26.35;14.70;;;;;;;3.63;100.00;102624.34;7376007;19;20021;-83
2022/11/13 06:25:41;;;;;;;24.08;12.82;;;;;;;3.56;100.00;102620.44;7375772;19;20006;-80
2022/11/13 06:28:11;;;;;;;21.85;12.93;;;;;;;3.56;100.00;102629.91;7378038;19;20030;-81
2022/11/13 06:30:41;;;;;;;20.02;12.63;;;;;;;3.54;100.00;102624.63;7376251;19;20022;-81
2022/11/13 06:33:10;;;;;;;23.67;14.18;;;;;;;3.53;100.00;102625.41;7377867;19;20014;-80
2022/11/13 06:35:40;;;;;;;22.33;13.10;;;;;;;3.58;100.00;102630.91;7380613;19;20003;-81
2022/11/13 06:38:12;;;;;;;24.73;13.90;;;;;;;3.59;100.00;102617.16;7379398;19;20017;-80
2022/11/13 06:40:42;;;;;;;23.20;13.88;;;;;;;3.64;100.00;102618.38;7376704;19;20133;-79
2022/11/13 06:43:11;;;;;;;22.45;13.18;;;;;;;3.69;100.00;102626.47;7378562;19;20431;-80
2022/11/13 06:45:41;;;;;;;21.33;13.27;;;;;;;3.69;100.00;102629.97;7379156;19;20006;-81
2022/11/13 06:48:10;;;;;;;20.67;13.20;;;;;;;3.69;100.00;102621.28;7378859;19;20022;-81
2022/11/13 06:50:40;;;;;;;21.77;13.18;;;;;;;3.70;100.00;102625.69;7378607;19;20019;-80
2022/11/13 06:53:19;;;;;;;21.58;13.32;;;;;;;3.70;100.00;102626.59;7376829;19;20018;-80
2022/11/13 06:55:50;;;;;;;21.30;12.52;;;;;;;3.71;100.00;102620.59;7378073;19;20030;-80
2022/11/13 06:58:19;;;;;;;24.10;13.00;;;;;;;3.71;100.00;102615.41;7377131;19;20015;-80
2022/11/13 07:00:49;;;;;;;23.58;14.18;;;;;;;3.71;100.00;102623.19;7379123;19;20010;-80
2022/11/13 07:03:19;;;;;;;24.02;13.02;;;;;;;3.73;100.00;102615.53;7378574;19;20069;-79
2022/11/13 07:05:49;;;;;;;20.63;13.20;;;;;;;3.77;100.00;102613.25;7380236;19;20486;-80
2022/11/13 07:08:22;;;;;;;22.98;13.57;;;;;;;3.83;100.00;102615.34;7377528;19;20007;-80
2022/11/13 07:10:55;;;;;;;22.45;12.57;;;;;;;3.86;100.00;102615.56;7379459;19;20490;-81
2022/11/13 07:13:26;;;;;;;20.60;12.15;;;;;;;3.92;100.00;102610.78;7377853;19;20015;-81
2022/11/13 07:15:56;;;;;;;22.38;13.13;;;;;;;3.97;100.00;102609.41;7376988;19;20013;-79
2022/11/13 07:18:26;;;;;;;23.02;13.60;;;;;;;4.02;100.00;102612.31;7376835;19;20018;-80
2022/11/13 07:20:55;;;;;;;22.88;14.20;;;;;;;4.05;100.00;102610.84;7377952;19;20269;-80
2022/11/13 07:23:28;;;;;;;25.83;14.93;;;;;;;4.07;100.00;102603.16;7377974;19;20007;-80
2022/11/13 07:25:57;;;;;;;20.40;12.50;;;;;;;4.10;100.00;102595.56;7378317;19;20010;-80
2022/11/13 07:28:27;;;;;;;23.35;14.35;;;;;;;4.14;100.00;102598.47;7378839;19;20010;-80
2022/11/13 07:30:58;;;;;;;27.75;14.85;;;;;;;4.18;100.00;102595.25;7375407;19;20007;-79
2022/11/13 07:33:28;;;;;;;22.83;14.15;;;;;;;4.21;100.00;102585.06;7374968;19;20192;-80
2022/11/13 07:35:58;;;;;;;20.38;13.00;;;;;;;4.25;100.00;102591.38;7376993;19;20015;-79
2022/11/13 07:38:32;;;;;;;23.52;13.40;;;;;;;4.28;100.00;102597.66;7377042;19;20023;-79
2022/11/13 07:41:02;;;;;;;;;;;;;;;4.34;100.00;102588.47;7377238;19;20458;-80
2022/11/13 07:43:31;;;;;;;26.00;14.52;;;;;;;4.40;100.00;102591.47;7376018;19;19915;-80
2022/11/13 07:46:02;;;;;;;25.13;13.52;;;;;;;4.44;100.00;102596.06;7377962;19;20015;-81
2022/11/13 07:48:31;;;;;;;21.20;13.65;;;;;;;4.47;100.00;102598.88;7372864;19;20014;-80
2022/11/13 07:51:03;;;;;;;22.92;14.50;;;;;;;4.50;100.00;102597.38;7377814;19;20018;-81
2022/11/13 07:53:37;;;;;;;21.70;13.13;;;;;;;4.51;100.00;102588.78;7371902;19;20014;-80
2022/11/13 07:56:09;;;;;;;24.08;14.68;;;;;;;4.55;100.00;102585.59;7378567;19;20010;-80
2022/11/13 07:58:39;;;;;;;20.48;13.00;;;;;;;4.55;100.00;102589.88;7376492;19;20015;-80
2022/11/13 08:01:09;;;;;;;23.15;14.20;;;;;;;4.62;100.00;102588.59;7381274;19;20021;-80
2022/11/13 08:03:39;;;;;;;24.67;14.68;;;;;;;4.71;100.00;102589.19;7381938;19;20066;-81
2022/11/13 08:06:09;;;;;;;23.42;14.27;;;;;;;4.82;100.00;102589.09;7381817;19;20019;-81
2022/11/13 08:08:42;;;;;;;25.25;15.20;;;;;;;4.95;100.00;102589.88;7382675;19;20018;-81
2022/11/13 08:11:11;;;;;;;21.80;13.20;;;;;;;5.01;100.00;102598.06;7378944;19;20126;-80
2022/11/13 08:13:41;;;;;;;22.48;15.05;;;;;;;5.10;100.00;102596.94;7382821;19;20538;-81
2022/11/13 08:16:10;;;;;;;26.83;15.95;;;;;;;5.24;100.00;102595.16;7387583;19;20021;-81
2022/11/13 08:18:40;;;;;;;26.67;15.93;;;;;;;5.35;100.00;102594.13;7389127;19;20010;-81
2022/11/13 08:21:10;;;;;;;26.75;14.85;;;;;;;5.45;100.00;102600.81;7388693;19;20102;-81
2022/11/13 08:23:46;;;;;;;25.45;14.73;;;;;;;5.56;100.00;102604.97;7393318;19;20130;-80
2022/11/13 08:26:15;;;;;;;24.40;14.10;;;;;;;5.61;100.00;102597.44;7396973;19;20114;-80
2022/11/13 08:28:45;;;;;;;22.35;13.77;;;;;;;5.69;100.00;102591.00;7393474;19;20007;-80
2022/11/13 08:31:17;;;;;;;23.42;13.95;;;;;;;5.80;100.00;102584.75;7387423;19;20109;-80
2022/11/13 08:33:47;;;;;;;24.80;14.88;;;;;;;5.91;100.00;102594.13;7388751;19;20022;-80
2022/11/13 08:36:16;;;;;;;22.42;14.75;;;;;;;5.98;100.00;102596.31;7390469;19;20007;-80
2022/11/13 08:38:49;;;;;;;23.85;14.38;;;;;;;6.05;100.00;102580.22;7386064;19;20014;-80
2022/11/13 08:41:19;;;;;;;21.15;13.13;;;;;;;6.16;100.00;102592.19;7390517;19;20006;-81
2022/11/13 08:43:48;;;;;;;22.83;13.35;;;;;;;6.29;100.00;102587.66;7390420;19;20010;-80
2022/11/13 08:46:21;;;;;;;22.65;12.98;;;;;;;6.37;100.00;102582.09;7389026;19;20018;-81
2022/11/13 08:48:50;;;;;;;21.58;12.85;;;;;;;6.53;100.00;102581.25;7391358;19;20015;-80
2022/11/13 08:51:20;;;;;;;19.75;12.90;;;;;;;6.56;100.00;102574.50;7392531;19;20014;-81
2022/11/13 08:53:52;;;;;;;20.45;13.35;;;;;;;6.67;100.00;102572.50;7385730;19;20542;-81
2022/11/13 08:56:22;;;;;;;21.67;12.73;;;;;;;6.75;100.00;102570.34;7391985;19;21138;-80
2022/11/13 08:58:51;;;;;;;21.35;13.30;;;;;;;6.84;100.00;102558.72;7389742;19;20014;-81
2022/11/13 09:01:22;;;;;;;19.58;11.52;;;;;;;6.89;100.00;102559.88;7390832;19;20029;-81
2022/11/13 09:03:51;;;;;;;19.00;12.52;;;;;;;6.91;100.00;102557.34;7386792;19;20011;-81
2022/11/13 09:06:21;;;;;;;21.33;12.02;;;;;;;6.90;100.00;102550.34;7390909;19;20019;-81
2022/11/13 09:08:53;;;;;;;19.35;11.95;;;;;;;6.97;100.00;102552.47;7388708;19;20038;-80
2022/11/13 09:11:26;;;;;;;20.98;12.40;;;;;;;7.08;100.00;102543.50;7387009;19;20011;-82
2022/11/13 09:13:56;;;;;;;18.23;11.38;;;;;;;7.10;100.00;102534.06;7381244;19;20517;-82
2022/11/13 09:16:25;;;;;;;19.95;12.07;;;;;;;7.18;100.00;102532.75;7388795;19;20014;-82
2022/11/13 09:18:55;;;;;;;16.80;11.70;;;;;;;7.24;100.00;102537.41;7384943;19;20030;-81
2022/11/13 09:21:25;;;;;;;15.80;11.18;;;;;;;7.43;100.00;102534.94;7382550;19;20029;-81
2022/11/13 09:23:57;;;;;;;18.27;12.25;;;;;;;7.51;100.00;102525.78;7382220;19;20014;-81
2022/11/13 09:26:26;;;;;;;17.80;11.70;;;;;;;7.59;100.00;102533.13;7379797;19;20021;-82
2022/11/13 09:28:56;;;;;;;18.40;11.38;;;;;;;7.66;100.00;102525.69;7373927;19;20565;-81
2022/11/13 09:31:26;;;;;;;20.20;12.05;;;;;;;7.80;100.00;102539.47;7377592;19;20010;-81
2022/11/13 09:33:55;;;;;;;21.77;11.27;;;;;;;7.88;100.00;102523.38;7379872;19;20010;-81
2022/11/13 09:36:25;;;;;;;20.98;12.82;;;;;;;7.96;100.00;102526.38;7375098;19;20006;-83
2022/11/13 09:38:58;;;;;;;21.25;12.38;;;;;;;8.09;100.00;102517.44;7383005;19;21307;-82
2022/11/13 09:41:32;;;;;;;19.85;12.13;;;;;;;8.22;100.00;102516.34;7377412;19;20013;-81
2022/11/13 09:44:05;;;;;;;21.45;12.45;;;;;;;8.28;100.00;102514.03;7383529;19;20007;-81
2022/11/13 09:46:40;;;;;;;19.83;11.95;;;;;;;8.37;100.00;102517.09;7382027;19;20034;-80
2022/11/13 09:49:16;;;;;;;18.30;10.85;;;;;;;8.50;100.00;102512.53;7380428;19;20241;-80
2022/11/13 09:51:52;;;;;;;18.60;10.25;;;;;;;8.64;100.00;102500.09;7376627;19;20009;-82
2022/11/13 09:54:25;;;;;;;17.77;11.18;;;;;;;8.73;100.00;102502.25;7379463;19;20058;-81
2022/11/13 09:57:01;;;;;;;16.52;10.95;;;;;;;8.79;100.00;102506.06;7380742;19;20007;-80
2022/11/13 09:59:36;;;;;;;16.85;11.80;;;;;;;8.86;100.00;102520.34;7381532;19;20014;-82
2022/11/13 10:02:18;;;;;;;19.25;12.18;;;;;;;8.98;100.00;102514.78;7382796;19;20015;-81
2022/11/13 10:04:59;;;;;;;17.02;11.13;;;;;;;9.09;100.00;102524.91;7382849;19;20070;-81
2022/11/13 10:07:38;;;;;;;19.17;11.45;;;;;;;9.22;100.00;102520.25;7382582;19;20221;-82
2022/11/13 10:10:30;;;;;;;19.08;11.07;;;;;;;9.31;100.00;102512.81;7384985;19;20482;-81
2022/11/13 10:13:02;;;;;;;17.73;11.35;;;;;;;9.44;100.00;102510.75;7381737;19;20022;-81
2022/11/13 10:15:33;;;;;;;16.23;10.85;;;;;;;9.52;100.00;102506.75;7378856;19;20052;-79
2022/11/13 10:18:08;;;;;;;17.13;11.02;;;;;;;9.55;100.00;102506.00;7378502;19;20014;-82
2022/11/13 10:20:42;;;;;;;16.00;10.07;;;;;;;9.63;100.00;102504.63;7374752;19;20522;-83
2022/11/13 10:23:17;;;;;;;15.90;10.18;;;;;;;9.80;100.00;102498.38;7378911;19;20022;-82
2022/11/13 10:25:51;;;;;;;15.98;10.60;;;;;;;9.94;100.00;102498.97;7380700;19;20010;-82
2022/11/13 10:28:23;;;;;;;15.30;9.82;;;;;;;10.10;100.00;102504.00;7380700;19;20125;-81
2022/11/13 10:31:14;;;;;;;16.02;9.77;;;;;;;10.19;100.00;102486.88;7379882;19;20006;-81
2022/11/13 10:33:44;;;;;;;17.30;9.45;;;;;;;10.21;100.00;102491.38;7380185;19;20021;-80
2022/11/13 10:36:22;;;;;;;16.73;10.65;;;;;;;10.28;100.00;102484.66;7377068;19;20369;-82
2022/11/13 10:39:00;;;;;;;15.80;9.70;;;;;;;10.37;100.00;102482.41;7374343;19;20029;-82
2022/11/13 10:41:32;;;;;;;16.90;10.57;;;;;;;10.42;100.00;102480.84;7381240;19;20153;-80
2022/11/13 10:44:03;;;;;;;17.00;10.75;;;;;;;10.52;100.00;102476.84;7378738;19;20353;-80
2022/11/13 10:46:33;;;;;;;17.27;10.32;;;;;;;10.59;100.00;102474.53;7377381;19;21552;-80
2022/11/13 10:49:14;;;;;;;16.05;10.18;;;;;;;10.63;100.00;102476.44;7382452;19;20068;-80
2022/11/13 10:51:43;;;;;;;19.20;11.45;;;;;;;10.74;100.00;102459.38;7378357;19;20026;-80
2022/11/13 10:54:24;;;;;;;16.33;11.35;;;;;;;10.86;100.00;102464.19;7376886;19;20035;-79
2022/11/13 10:57:07;;;;;;;18.25;9.65;;;;;;;10.84;100.00;102460.63;7379492;19;20014;-81
2022/11/13 10:59:44;;;;;;;17.35;9.95;;;;;;;10.94;100.00;102456.63;7381615;19;20018;-82
2022/11/13 11:02:19;;;;;;;16.05;10.10;;;;;;;11.12;100.00;102452.03;7377254;19;20017;-80
2022/11/13 11:04:49;;;;;;;17.75;10.20;;;;;;;11.18;100.00;102441.75;7381751;19;20085;-81
2022/11/13 11:07:21;;;;;;;17.20;10.32;;;;;;;11.12;100.00;102436.28;7381094;19;20014;-81
2022/11/13 11:09:52;;;;;;;13.25;8.85;;;;;;;11.22;100.00;102437.53;7377249;19;20157;-82
2022/11/13 11:12:26;;;;;;;15.88;9.70;;;;;;;11.51;100.00;102441.16;7373244;19;20022;-83
2022/11/13 11:15:06;;;;;;;16.35;10.18;;;;;;;11.67;100.00;102422.44;7375464;19;20014;-83
2022/11/13 11:17:45;;;;;;;15.88;9.52;;;;;;;11.80;100.00;102416.78;7373635;19;20127;-80
2022/11/13 11:20:33;;;;;;;13.32;9.30;;;;;;;11.66;100.00;102413.66;7374996;19;20026;-82
2022/11/13 11:23:14;;;;;;;17.20;10.18;;;;;;;11.68;100.00;102411.09;7370314;19;20361;-83
2022/11/13 11:25:52;;;;;;;13.32;9.38;;;;;;;11.77;100.00;102408.81;7370658;19;20022;-84
2022/11/13 11:28:32;;;;;;;16.45;9.80;;;;;;;11.82;100.00;102401.97;7372820;19;20021;-84
2022/11/13 11:31:12;;;;;;;15.60;10.15;;;;;;;11.72;100.00;102405.09;7376306;19;20038;-84
2022/11/13 11:33:52;;;;;;;16.02;9.85;;;;;;;11.90;100.00;102394.31;7373674;19;20542;-85
2022/11/13 11:36:32;;;;;;;16.23;10.27;;;;;;;11.94;100.00;102385.69;7374899;19;20015;-85
2022/11/13 11:39:09;;;;;;;14.95;10.82;;;;;;;11.98;100.00;102387.56;7377299;19;20015;-85
2022/11/13 11:41:46;;;;;;;17.98;10.85;;;;;;;12.08;100.00;102372.16;7380086;19;20033;-84
2022/11/13 11:44:26;;;;;;;18.80;10.88;;;;;;;12.18;100.00;102375.94;7380722;19;20498;-83
2022/11/13 11:46:58;;;;;;;16.95;11.35;;;;;;;12.32;100.00;102368.50;7375228;19;20657;-84
2022/11/13 11:49:28;;;;;;;15.50;9.65;;;;;;;12.23;100.00;102365.56;7375036;19;20015;-83
2022/11/13 11:52:13;;;;;;;16.67;10.82;;;;;;;12.32;100.00;102353.59;7374697;19;20815;-80
2022/11/13 11:54:45;;;;;;;16.58;10.73;;;;;;;12.49;100.00;102354.06;7378487;19;20123;-82
2022/11/13 11:57:36;;;;;;;15.35;9.50;;;;;;;12.47;100.00;102350.53;7376538;19;20011;-83
2022/11/13 12:00:13;;;;;;;18.38;10.38;;;;;;;12.32;100.00;102344.81;7385565;19;20014;-83
2022/11/13 12:03:09;;;;;;;15.23;9.90;;;;;;;12.29;100.00;102347.34;7380314;19;20011;-85
2022/11/13 12:05:49;;;;;;;15.75;10.73;;;;;;;12.22;100.00;102345.38;7392531;19;20022;-83
2022/11/13 12:08:30;;;;;;;15.40;10.10;;;;;;;12.19;100.00;102345.28;7393436;19;20018;-81
2022/11/13 12:11:09;;;;;;;16.10;10.10;;;;;;;12.22;100.00;102341.00;7386077;19;20352;-83
2022/11/13 12:13:48;;;;;;;15.80;10.80;;;;;;;12.51;100.00;102338.31;7384147;19;20025;-84
2022/11/13 12:16:29;;;;;;;17.48;10.18;;;;;;;12.47;100.00;102332.09;7377191;19;20228;-84
2022/11/13 12:19:05;;;;;;;14.73;10.93;;;;;;;12.69;100.00;102326.56;7376669;19;20444;-83
2022/11/13 12:21:47;;;;;;;17.38;11.75;;;;;;;12.72;100.00;102317.88;7377106;19;20034;-84
2022/11/13 12:24:50;;;;;;;16.67;10.85;;;;;;;12.95;100.00;102310.59;7374852;19;20017;-84
2022/11/13 12:27:29;;;;;;;18.00;11.73;;;;;;;13.13;100.00;102308.47;7383755;19;20018;-82
2022/11/13 12:30:10;;;;;;;17.50;10.82;;;;;;;13.15;100.00;102293.59;7384341;19;20026;-84
2022/11/13 12:33:03;;;;;;;17.27;10.63;;;;;;;13.13;100.00;102290.03;7389539;19;20010;-83